PORT of AGIOS KONSTANTINOS

Riik: Greece Riik: Greece (GR)
Latitude / Longitude: 38.758095° / 22.866425° Näita kaardil Näita kaardil
Kohalik aeg:  UTC +3
UN/LOCODE: GRAKO

Recent Arrivals and Departures


Vessel's Name
Saabumine (UTC)
Saabumine (LT)
Departure (UTC)
Departure (LT)
Vessel Type: High Speed Craft  FLYING DOLPHIN ERATO 2014-10-19 15:15:00 2014-10-19 18:15:00 2014-10-19 15:39:00 2014-10-19 18:39:00
Vessel Type: High Speed Craft  FLYING DOLPHIN ERATO 2014-10-17 16:01:00 2014-10-17 19:01:00 2014-10-17 16:30:00 2014-10-17 19:30:00
Vessel Type: Kalastamine  CHARIKLEIA 2014-10-15 01:45:00 2014-10-15 04:45:00 2014-10-15 02:04:00 2014-10-15 05:04:00
Vessel Type: Kalastamine  EFSTATHIOS 2014-10-14 01:17:00 2014-10-14 04:17:00 2014-10-14 18:09:00 2014-10-14 21:09:00
Vessel Type: Kalastamine  EFSTATHIOS 2014-10-13 01:00:00 2014-10-13 04:00:00 2014-10-13 01:16:00 2014-10-13 04:16:00
Vessel Type: Kalastamine  CHARIKLEIA 2014-10-13 00:27:00 2014-10-13 03:27:00 2014-10-13 01:14:00 2014-10-13 04:14:00
Vessel Type: Kalastamine  DIMITRA V 2014-10-12 21:59:00 2014-10-13 00:59:00 2014-10-12 22:15:00 2014-10-13 01:15:00
Vessel Type: High Speed Craft  FLYING DOLPHIN ERATO 2014-10-12 15:08:00 2014-10-12 18:08:00 2014-10-12 15:37:00 2014-10-12 18:37:00
Vessel Type: High Speed Craft  FLYING DOLPHIN ERATO 2014-10-10 16:12:00 2014-10-10 19:12:00 2014-10-10 16:35:00 2014-10-10 19:35:00
Vessel Type: High Speed Craft  FLYING DOLPHIN ERATO 2014-10-05 15:08:00 2014-10-05 18:08:00 2014-10-05 15:32:00 2014-10-05 18:32:00

Oodatavad saabumised


Vessel's Name
Scheduled Arrival (UTC)
Ajastatud saabumisaeg (KA)
Loodetav saabumisaeg (UTC)
Loodetav saabumisaeg (KA)
Salvestusi ei leitud

Ilmainfo tuulest


    
Aeg (UTC)
Kiirus
Suund
Temperatuur
2014-10-22 03:00:00 9 knots 256° 18°C
2014-10-22 06:00:00 8 knots 249° 18°C
2014-10-22 09:00:00 4 knots 229° 20°C
2014-10-22 12:00:00 13 knots 239° 22°C
2014-10-22 15:00:00 16 knots 212° 22°C
2014-10-22 18:00:00 18 knots 194° 20°C
2014-10-22 21:00:00 19 knots 191° 19°C
2014-10-23 00:00:00 18 knots 202° 19°C
2014-10-23 03:00:00 12 knots 258° 19°C
2014-10-23 06:00:00 17 knots 262° 17°C
2014-10-23 09:00:00 17 knots 272° 18°C
2014-10-23 12:00:00 17 knots 268° 19°C
2014-10-23 15:00:00 19 knots 257° 18°C
2014-10-23 18:00:00 16 knots 234° 16°C
2014-10-23 21:00:00 18 knots 216° 16°C
2014-10-24 00:00:00 16 knots 224° 17°C
2014-10-24 03:00:00 14 knots 232° 18°C